AirNav   Air Wisconsin pilot careers
 
 1375 users online  

GA66 Bridge Building Heliport
Atlanta, Georgia, USA

GOING TO ATLANTA?


FAA INFORMATION EFFECTIVE 12 SEPTEMBER 2019

Location

FAA Identifier: GA66
Lat/Long: 33-48-34.8100N 084-23-42.5400W
33-48.580167N 084-23.709000W
33.8096694,-84.3951500
(estimated)
Elevation: 939 ft. / 286 m (estimated)
Variation: 02W (1985)
From city: 3 miles N of ATLANTA, GA
Time zone: UTC -4 (UTC -5 during Standard Time)
Zip code: 30309

Heliport Operations

Heliport use: Private use, MEDICAL USE.
Activation date: 04/1989
Control tower: no
ARTCC: ATLANTA CENTER
FSS: MACON FLIGHT SERVICE STATION
Attendance: UNATNDD
Wind indicator: yes
Segmented circle: no
Lights: FOR PERIMETER LGTS CALL 404-605-5000.

Heliport Communications

WX ASOS at PDK (6 nm NE): PHONE 770-457-1691
WX ASOS at FTY (7 nm W): PHONE 404-696-5660
WX ASOS at ATL (11 nm S): PHONE 404-559-5166
WX AWOS-3PT at RYY (16 nm NW): PHONE 770-425-3406

Nearby radio navigation aids

VOR radial/distance  VOR name  Freq  Var
PDKr235/6.2PEACHTREE VOR/DME116.6005W
ATLr015/11.0ATLANTA VORTAC116.9005W

 
NDB name  Hdg/Dist  Freq  Var  ID
FLANC082/12.534405WFT ..-. -
CHERO175/27.041505WDJD -.. .--- -..
PECAT014/30.931605WFFC ..-. ..-. -.-.
CARTERSVILLE140/32.330804WEVZ . ...- --..
ALCOVY292/32.437003WVOF ...- --- ..-.
MONROE281/33.639204WJNM .--- -. --
FLOWERY BRANCH229/33.936503WFKV ..-. -.- ...-
COWETA COUNTY029/36.823403WEQQ . --.- --.-
CARROLLTON072/39.527804WGPQ --. .--. --.-

Heliport Services

Runway Information

Helipad H1

Dimensions: 45 x 45 ft. / 14 x 14 m
Surface: concrete
ROOFTOP.
Runway edge lights: PERI
Latitude: 33-48.580167N
Longitude: 084-23.709000W
Elevation: 939.0 ft.
Traffic pattern: leftleft

Heliport Ownership and Management from official FAA records

Ownership: Privately-owned
Owner: THE PIEDMONT HOSPITAL INC
1968 PEACHTREE RD
ATLANTA, GA 30309
Phone (404) 605-2097
Manager: WILLIAM DAVIDSON
1968 PEACHTREE RD
ATLANTA, GA 30309
Phone (404) 605-3349

Additional Remarks

FOR CD CTC ATLANTA APCH AT 678-364-6131.

Instrument Procedures

There are no published instrument procedures at GA66.

Some nearby airports with instrument procedures:

KPDK - Dekalb-Peachtree Airport (6 nm NE)
KFTY - Fulton County Airport-Brown Field (7 nm W)
KMGE - Dobbins Air Reserve Base (9 nm NW)
KATL - Hartsfield - Jackson Atlanta International Airport (11 nm S)
KRYY - Cobb County International Airport-McCollum Field (16 nm NW)
 
Loc | Ops | Rwys | IFR | FBO | Links
Com | Nav | Svcs | Stats | Notes
Area around GA66 (Bridge Building Heliport)
 
Road maps at: MapQuest Bing Google
 
Aerial photo
No photo
 
Sectional chart

 
Airport distance calculator
Flying to Bridge Building Heliport? Find the distance to fly.

From to GA66

Sunrise and sunset
Times for 20-Sep-2019
 Local
(UTC-4)
 Zulu
(UTC)
Morning civil twilight07:0011:00
Sunrise07:2511:25
Sunset19:3723:37
Evening civil twilight20:0200:02

Current date and time
Zulu (UTC)  20-Sep-2019 19:18:52
Local (UTC-4)  20-Sep-2019 15:18:52
 
METAR
KFTY 
6nm W 
201853Z 05009KT 10SM CLR 27/11 A3025 RMK AO2 SLP236 T02670106
KPDK 
6nm NE 
201853Z 14007KT 10SM CLR 26/11 A3027 RMK AO2 SLP237 T02560111
KMGE 
9nm NW 
201856Z 08007KT 10SM CLR 26/12 A3026 RMK AO2A SLP240 T02600117 $
KATL 
11nm S 
201852Z 11009KT 10SM FEW300 27/10 A3026 RMK AO2 SLP239 T02720100
KRYY 
16nm NW 
201850Z 10007KT 10SM CLR 26/13 A3027 RMK AO2 SLP970 T02610128 $
TAF
KFTY 
6nm W 
201720Z 2018/2118 11007KT P6SM FEW250 FM210000 10003KT P6SM SCT250 FM211500 12006KT P6SM SCT250
KPDK 
6nm NE 
201720Z 2018/2118 10006KT P6SM FEW250 FM210000 09003KT P6SM SCT250 FM211500 11006KT P6SM SCT250
KMGE 
9nm NW 
201300Z 2013/2119 VRB06KT 9999 FEW050 SCT250 QNH3020INS TX27/2021Z TN15/2112Z
KATL 
11nm S 
201720Z 2018/2124 10009KT P6SM FEW250 FM210000 10004KT P6SM SCT250 FM211400 14007KT P6SM SCT250
KRYY 
16nm NW 
201720Z 2018/2118 11008KT P6SM FEW250 FM210000 09003KT P6SM SCT250 FM211400 13006KT P6SM SCT250
NOTAMs
Click for the latest NOTAMs
NOTAMs are issued by the DoD/FAA and will open in a separate window not controlled by AirNav.

 

 
 

Would you like to see your business listed on this page?

 If your business provides an interesting product or service to pilots, flight crews, aircraft, or users of the Bridge Building Heliport, you should consider listing it here.  To start the listing process, click on the button below
 
Add a business
 

Other Pages about Bridge Building Heliport

Update a link
 
Copyright © AirNav, LLC. All rights reserved. Privacy Policy  Contact